Time;durP1;ratioP1;P1;durP2;ratioP2;P2;SDS_P1;SDS_P2;PMS_P1;PMS_P2;Temp;Humidity;BMP_temperature;BMP_pressure;BME280_temperature;BME280_humidity;BME280_pressure;Samples;Min_cycle;Max_cycle;Signal;HPM_P1;HPM_P2
2021/04/05 00:01:32;;;;;;;26.73;13.80;;;;;;;;;;5023099;28;20178;-71
2021/04/05 00:03:59;;;;;;;25.40;10.93;;;;;;;;;;5018521;28;20213;-71
2021/04/05 00:06:24;;;;;;;23.93;11.13;;;;;;;;;;5024128;28;20256;-71
2021/04/05 00:08:50;;;;;;;23.30;11.23;;;;;;;;;;5018549;28;20186;-70
2021/04/05 00:11:19;;;;;;;28.43;12.63;;;;;;;;;;5026732;28;20190;-70
2021/04/05 00:13:46;;;;;;;23.13;10.93;;;;;;;;;;5017752;28;20660;-70
2021/04/05 00:16:18;;;;;;;24.03;10.97;;;;;;;;;;5025908;28;20190;-71
2021/04/05 00:18:44;;;;;;;24.80;11.90;;;;;;;;;;5023503;28;20194;-71
2021/04/05 00:21:16;;;;;;;25.90;12.00;;;;;;;;;;5020887;28;20713;-71
2021/04/05 00:23:41;;;;;;;28.77;12.87;;;;;;;;;;5022197;28;20213;-71
2021/04/05 00:26:07;;;;;;;28.87;12.70;;;;;;;;;;5015183;28;20668;-71
2021/04/05 00:28:33;;;;;;;29.63;12.93;;;;;;;;;;5025781;28;20189;-71
2021/04/05 00:30:59;;;;;;;26.70;12.27;;;;;;;;;;5017474;28;20528;-71
2021/04/05 00:33:24;;;;;;;25.63;12.53;;;;;;;;;;5024226;28;20196;-71
2021/04/05 00:35:50;;;;;;;24.17;12.57;;;;;;;;;;5018486;28;20386;-71
2021/04/05 00:38:16;;;;;;;27.60;12.50;;;;;;;;;;5024268;28;20870;-71
2021/04/05 00:40:49;;;;;;;25.27;12.57;;;;;;;;;;5018788;28;20200;-71
2021/04/05 00:43:15;;;;;;;27.87;12.97;;;;;;;;;;5024852;28;20662;-71
2021/04/05 00:45:41;;;;;;;32.70;13.27;;;;;;;;;;5017477;28;20201;-70
2021/04/05 00:48:08;;;;;;;28.20;12.77;;;;;;;;;;5024182;28;20670;-70
2021/04/05 00:50:33;;;;;;;30.23;12.77;;;;;;;;;;5016265;28;20768;-70
2021/04/05 00:53:04;;;;;;;32.00;13.60;;;;;;;;;;5025116;28;20762;-70
2021/04/05 00:55:30;;;;;;;31.60;14.60;;;;;;;;;;5025308;28;20253;-70
2021/04/05 00:57:57;;;;;;;31.27;13.17;;;;;;;;;;5015649;28;20193;-70
2021/04/05 01:00:50;;;;;;;28.77;13.83;;;;;;;;;;5023830;28;20697;-70
2021/04/05 01:03:22;;;;;;;29.03;13.57;;;;;;;;;;5015138;28;20292;-70
2021/04/05 01:05:50;;;;;;;31.57;13.50;;;;;;;;;;5021377;28;20342;-70
2021/04/05 01:08:17;;;;;;;32.57;14.30;;;;;;;;;;5016654;28;20190;-70
2021/04/05 01:10:43;;;;;;;26.37;13.43;;;;;;;;;;5024069;28;20190;-70
2021/04/05 01:13:09;;;;;;;36.97;14.87;;;;;;;;;;5014634;28;20197;-70
2021/04/05 01:15:34;;;;;;;32.50;14.20;;;;;;;;;;5023807;28;20532;-71
2021/04/05 01:18:00;;;;;;;32.70;14.27;;;;;;;;;;5015854;28;20225;-70
2021/04/05 01:20:27;;;;;;;38.40;14.80;;;;;;;;;;5023504;28;20533;-70
2021/04/05 01:22:53;;;;;;;30.47;13.67;;;;;;;;;;5016273;28;20298;-71
2021/04/05 01:25:21;;;;;;;26.73;13.80;;;;;;;;;;5024423;28;20279;-71
2021/04/05 01:27:47;;;;;;;33.10;14.33;;;;;;;;;;5016010;28;20198;-71
2021/04/05 01:30:13;;;;;;;37.90;14.50;;;;;;;;;;5024473;28;20189;-71
2021/04/05 01:32:38;;;;;;;33.37;14.77;;;;;;;;;;5017111;28;20196;-71
2021/04/05 01:35:06;;;;;;;31.07;14.23;;;;;;;;;;5023425;28;20182;-70
2021/04/05 01:37:31;;;;;;;35.20;15.63;;;;;;;;;;5022853;28;20197;-71
2021/04/05 01:39:57;;;;;;;30.77;14.13;;;;;;;;;;5014542;28;20228;-70
2021/04/05 01:42:22;;;;;;;34.10;15.93;;;;;;;;;;5023337;28;20722;-70
2021/04/05 01:44:48;;;;;;;35.50;15.77;;;;;;;;;;5016418;28;20214;-70
2021/04/05 01:47:13;;;;;;;32.00;15.50;;;;;;;;;;5021550;28;20181;-70
2021/04/05 01:49:39;;;;;;;31.37;15.90;;;;;;;;;;5016374;28;20589;-71
2021/04/05 01:52:11;;;;;;;31.30;15.57;;;;;;;;;;5023878;28;20529;-71
2021/04/05 01:54:37;;;;;;;37.37;17.60;;;;;;;;;;5016425;28;20196;-71
2021/04/05 01:57:04;;;;;;;40.90;15.53;;;;;;;;;;5022857;28;20547;-71
2021/04/05 01:59:29;;;;;;;42.77;17.00;;;;;;;;;;5016312;28;20272;-71
2021/04/05 02:01:55;;;;;;;40.77;16.77;;;;;;;;;;5020267;28;20560;-71
2021/04/05 02:04:21;;;;;;;34.77;16.40;;;;;;;;;;5017113;28;20218;-71
2021/04/05 02:06:46;;;;;;;39.77;16.63;;;;;;;;;;5021992;28;20194;-71
2021/04/05 02:09:13;;;;;;;37.27;16.63;;;;;;;;;;5024810;28;20190;-70
2021/04/05 02:11:39;;;;;;;42.63;16.57;;;;;;;;;;5015872;28;20181;-70
2021/04/05 02:14:06;;;;;;;34.50;16.57;;;;;;;;;;5023636;28;20183;-71
2021/04/05 02:16:32;;;;;;;37.73;16.37;;;;;;;;;;5016295;28;20222;-71
2021/04/05 02:18:59;;;;;;;40.40;17.03;;;;;;;;;;5024043;28;20264;-70
2021/04/05 02:21:26;;;;;;;39.50;17.70;;;;;;;;;;5011884;28;20213;-70
2021/04/05 02:23:54;;;;;;;42.97;19.23;;;;;;;;;;5025527;28;20654;-71
2021/04/05 02:26:26;;;;;;;37.03;17.53;;;;;;;;;;5013208;28;20205;-70
2021/04/05 02:28:59;;;;;;;37.67;17.70;;;;;;;;;;5026133;28;20185;-70
2021/04/05 02:31:26;;;;;;;38.33;17.17;;;;;;;;;;5019432;28;20194;-70
2021/04/05 02:33:54;;;;;;;41.33;18.13;;;;;;;;;;5027734;28;20186;-71
2021/04/05 02:36:22;;;;;;;42.77;18.40;;;;;;;;;;5017403;28;20198;-71
2021/04/05 02:38:50;;;;;;;44.10;18.13;;;;;;;;;;5027244;28;20240;-71
2021/04/05 02:41:17;;;;;;;46.70;17.70;;;;;;;;;;5019361;28;20197;-71
2021/04/05 02:43:44;;;;;;;48.40;18.80;;;;;;;;;;5025079;28;20263;-70
2021/04/05 02:46:16;;;;;;;41.67;18.67;;;;;;;;;;5025647;28;20236;-70
2021/04/05 02:48:46;;;;;;;41.00;17.83;;;;;;;;;;5019633;28;20194;-70
2021/04/05 02:51:12;;;;;;;47.07;18.60;;;;;;;;;;5024764;28;20225;-70
2021/04/05 02:53:42;;;;;;;40.43;18.10;;;;;;;;;;5017460;28;20185;-70
2021/04/05 02:56:09;;;;;;;47.97;18.23;;;;;;;;;;5023618;28;20197;-71
2021/04/05 02:58:40;;;;;;;40.53;18.67;;;;;;;;;;5019065;28;20694;-70
2021/04/05 03:01:08;;;;;;;39.80;17.50;;;;;;;;;;5024171;28;20197;-70
2021/04/05 03:03:36;;;;;;;37.63;19.00;;;;;;;;;;5018007;28;20210;-71
2021/04/05 03:06:02;;;;;;;45.97;18.60;;;;;;;;;;5025953;28;20277;-71
2021/04/05 03:08:28;;;;;;;43.87;17.77;;;;;;;;;;5017384;28;20181;-71
2021/04/05 03:10:56;;;;;;;42.10;18.80;;;;;;;;;;5027399;28;20200;-71
2021/04/05 03:13:23;;;;;;;35.77;16.90;;;;;;;;;;5018935;28;20181;-70
2021/04/05 03:15:49;;;;;;;42.20;17.43;;;;;;;;;;5027488;28;20251;-71
2021/04/05 03:18:18;;;;;;;41.57;17.33;;;;;;;;;;5024628;28;20606;-71
2021/04/05 03:20:43;;;;;;;35.97;16.43;;;;;;;;;;5021626;28;20304;-70
2021/04/05 03:23:09;;;;;;;36.27;15.97;;;;;;;;;;5027865;28;20194;-70
2021/04/05 03:25:35;;;;;;;39.07;17.33;;;;;;;;;;5017549;28;20288;-70
2021/04/05 03:28:00;;;;;;;44.67;18.23;;;;;;;;;;5023185;28;20200;-70
2021/04/05 03:30:40;;;;;;;40.77;17.13;;;;;;;;;;5018972;28;20193;-70
2021/04/05 03:33:25;;;;;;;44.90;17.27;;;;;;;;;;5025010;28;20221;-70
2021/04/05 03:35:55;;;;;;;42.27;16.67;;;;;;;;;;5016602;28;20590;-70
2021/04/05 03:38:21;;;;;;;36.57;16.00;;;;;;;;;;5022923;28;20183;-70
2021/04/05 03:40:47;;;;;;;43.07;16.37;;;;;;;;;;5014600;28;20225;-70
2021/04/05 03:43:20;;;;;;;41.50;17.63;;;;;;;;;;5025862;28;20281;-69
2021/04/05 03:45:54;;;;;;;35.63;16.80;;;;;;;;;;5014505;28;20545;-70
2021/04/05 03:48:43;;;;;;;35.60;16.10;;;;;;;;;;5025847;28;20177;-70
2021/04/05 03:51:17;;;;;;;43.90;18.33;;;;;;;;;;5005604;28;20226;-70
2021/04/05 03:53:55;;;;;;;39.33;15.93;;;;;;;;;;5026457;28;20526;-70
2021/04/05 03:56:33;;;;;;;41.37;16.63;;;;;;;;;;5016568;28;20235;-71
2021/04/05 03:59:04;;;;;;;36.53;15.90;;;;;;;;;;5026510;28;20180;-70
2021/04/05 04:01:30;;;;;;;39.97;15.40;;;;;;;;;;5017881;28;20197;-70
2021/04/05 04:04:06;;;;;;;38.90;15.77;;;;;;;;;;5026346;28;20214;-70
2021/04/05 04:06:49;;;;;;;33.67;15.93;;;;;;;;;;5016277;28;20197;-70
2021/04/05 04:09:16;;;;;;;34.00;15.83;;;;;;;;;;5025421;28;20189;-70
2021/04/05 04:11:44;;;;;;;42.83;16.63;;;;;;;;;;5015295;28;20631;-70
2021/04/05 04:14:11;;;;;;;38.07;15.57;;;;;;;;;;5026233;28;20181;-70
2021/04/05 04:16:37;;;;;;;36.67;15.27;;;;;;;;;;5015468;28;20312;-70
2021/04/05 04:19:05;;;;;;;31.00;13.97;;;;;;;;;;5027545;28;20682;-70
2021/04/05 04:21:30;;;;;;;36.47;15.50;;;;;;;;;;5024429;28;20781;-70
2021/04/05 04:23:57;;;;;;;30.33;13.70;;;;;;;;;;5018152;28;20219;-70
2021/04/05 04:26:23;;;;;;;33.80;14.47;;;;;;;;;;5022992;28;20174;-70
2021/04/05 04:28:50;;;;;;;38.80;14.63;;;;;;;;;;5015104;28;20267;-70
2021/04/05 04:31:19;;;;;;;33.40;12.23;;;;;;;;;;5023246;28;20202;-70
2021/04/05 04:33:47;;;;;;;29.20;11.80;;;;;;;;;;5015421;28;20631;-70
2021/04/05 04:36:12;;;;;;;25.20;9.87;;;;;;;;;;5024456;28;20328;-70
2021/04/05 04:38:38;;;;;;;22.50;9.03;;;;;;;;;;5018631;28;20197;-70
2021/04/05 04:41:03;;;;;;;27.13;9.67;;;;;;;;;;5024042;28;20186;-70
2021/04/05 04:43:29;;;;;;;25.87;8.63;;;;;;;;;;5014719;28;20786;-69
2021/04/05 04:45:54;;;;;;;25.67;9.03;;;;;;;;;;5025327;28;20194;-70
2021/04/05 04:48:19;;;;;;;20.23;8.80;;;;;;;;;;5013682;28;21370;-71
2021/04/05 04:50:45;;;;;;;21.70;8.03;;;;;;;;;;5024522;28;20376;-70
2021/04/05 04:53:10;;;;;;;21.27;8.00;;;;;;;;;;5023221;28;20182;-70
2021/04/05 04:55:37;;;;;;;24.03;7.23;;;;;;;;;;5017568;28;20189;-71
2021/04/05 04:58:03;;;;;;;19.93;7.80;;;;;;;;;;5022634;28;20190;-71
2021/04/05 05:00:32;;;;;;;25.93;8.30;;;;;;;;;;5014884;28;20197;-71
2021/04/05 05:02:57;;;;;;;25.43;7.93;;;;;;;;;;5027746;28;20653;-71
2021/04/05 05:05:27;;;;;;;22.03;7.83;;;;;;;;;;5015501;28;20201;-71
2021/04/05 05:07:54;;;;;;;24.30;7.67;;;;;;;;;;5026457;28;20186;-71
2021/04/05 05:10:20;;;;;;;19.70;7.43;;;;;;;;;;5015590;28;20181;-71
2021/04/05 05:12:45;;;;;;;20.00;7.73;;;;;;;;;;5023330;28;20178;-71
2021/04/05 05:15:13;;;;;;;22.90;8.03;;;;;;;;;;4327368;28;10000717;-71
2021/04/05 05:17:43;;;;;;;19.90;6.37;;;;;;;;;;5019311;28;20185;-72
2021/04/05 05:20:10;;;;;;;10.77;3.90;;;;;;;;;;5010346;28;20676;-71
2021/04/05 05:22:39;;;;;;;7.20;2.60;;;;;;;;;;5019547;28;20609;-71
2021/04/05 05:25:06;;;;;;;5.77;1.63;;;;;;;;;;5013038;28;20611;-71
2021/04/05 05:27:39;;;;;;;6.60;1.80;;;;;;;;;;5019945;28;20281;-72
2021/04/05 05:30:07;;;;;;;11.13;1.63;;;;;;;;;;5019793;28;20190;-72
2021/04/05 05:32:34;;;;;;;9.93;1.87;;;;;;;;;;5013684;28;20656;-72
2021/04/05 05:34:59;;;;;;;7.23;1.53;;;;;;;;;;5020958;28;20212;-71
2021/04/05 05:37:26;;;;;;;7.00;0.90;;;;;;;;;;5011167;28;20580;-71
2021/04/05 05:39:51;;;;;;;5.57;1.17;;;;;;;;;;5020812;28;20460;-72
2021/04/05 05:42:30;;;;;;;3.47;0.73;;;;;;;;;;5010256;28;20221;-71
2021/04/05 05:45:08;;;;;;;2.87;0.50;;;;;;;;;;5016653;28;20254;-71
2021/04/05 05:47:46;;;;;;;2.70;0.60;;;;;;;;;;5012318;28;20200;-70
2021/04/05 05:50:21;;;;;;;3.10;0.83;;;;;;;;;;5016856;28;20229;-71
2021/04/05 05:52:58;;;;;;;2.13;0.60;;;;;;;;;;5009811;28;20215;-71
2021/04/05 05:55:41;;;;;;;3.37;0.70;;;;;;;;;;5018565;28;20190;-70
2021/04/05 05:58:14;;;;;;;3.43;0.80;;;;;;;;;;5011097;28;20197;-70
2021/04/05 06:00:50;;;;;;;4.10;0.90;;;;;;;;;;5017737;28;20675;-70
2021/04/05 06:03:45;;;;;;;4.17;0.80;;;;;;;;;;5012625;28;20213;-71
2021/04/05 06:06:20;;;;;;;4.90;0.90;;;;;;;;;;5021615;28;20332;-70
2021/04/05 06:09:12;;;;;;;8.33;0.93;;;;;;;;;;5017562;28;20605;-70
2021/04/05 06:11:46;;;;;;;2.73;1.10;;;;;;;;;;5024532;28;20983;-71
2021/04/05 06:14:17;;;;;;;8.07;1.07;;;;;;;;;;5014991;28;20224;-70
2021/04/05 06:16:49;;;;;;;7.20;1.27;;;;;;;;;;5023927;28;20241;-71
2021/04/05 06:19:23;;;;;;;6.87;1.33;;;;;;;;;;5016726;28;20721;-71
2021/04/05 06:22:07;;;;;;;6.13;1.13;;;;;;;;;;5024649;28;20177;-70
2021/04/05 06:24:38;;;;;;;6.83;1.00;;;;;;;;;;5016228;28;20235;-71
2021/04/05 06:27:13;;;;;;;13.57;1.67;;;;;;;;;;5021829;28;20189;-71
2021/04/05 06:30:02;;;;;;;10.33;1.33;;;;;;;;;;5015421;28;20335;-71
2021/04/05 06:32:53;;;;;;;13.10;1.30;;;;;;;;;;5028391;28;20195;-71
2021/04/05 06:35:36;;;;;;;5.40;1.10;;;;;;;;;;5016735;28;20200;-71
2021/04/05 06:38:09;;;;;;;7.83;1.20;;;;;;;;;;5025334;28;20647;-70
2021/04/05 06:40:37;;;;;;;7.63;1.30;;;;;;;;;;5017703;28;20204;-71
2021/04/05 06:43:20;;;;;;;3.87;0.90;;;;;;;;;;5026128;28;20197;-70
2021/04/05 06:45:58;;;;;;;6.70;1.00;;;;;;;;;;5014480;28;20558;-71
2021/04/05 06:48:42;;;;;;;4.17;0.83;;;;;;;;;;5025882;28;20271;-70
2021/04/05 06:51:20;;;;;;;4.47;0.90;;;;;;;;;;5018726;28;20639;-70
2021/04/05 06:54:21;;;;;;;7.40;0.83;;;;;;;;;;5025501;28;20185;-70
2021/04/05 06:57:07;;;;;;;0.80;0.20;;;;;;;;;;5019219;28;20209;-70
2021/04/05 06:59:57;;;;;;;4.23;0.67;;;;;;;;;;5024607;28;20275;-70
2021/04/05 07:02:50;;;;;;;4.23;0.87;;;;;;;;;;5012939;28;20190;-70
2021/04/05 07:05:47;;;;;;;4.77;0.70;;;;;;;;;;5022420;28;20673;-71
2021/04/05 07:08:33;;;;;;;6.50;0.80;;;;;;;;;;5020090;28;20284;-71
2021/04/05 07:11:24;;;;;;;4.23;0.97;;;;;;;;;;5013288;28;20238;-71
2021/04/05 07:14:27;;;;;;;4.63;0.70;;;;;;;;;;5024852;28;20184;-70
2021/04/05 07:17:30;;;;;;;1.07;0.30;;;;;;;;;;5014580;28;20193;-71
2021/04/05 07:20:13;;;;;;;4.40;0.87;;;;;;;;;;5022746;28;21731;-71
2021/04/05 07:23:05;;;;;;;8.43;1.37;;;;;;;;;;5016374;28;20716;-70
2021/04/05 07:26:04;;;;;;;6.13;1.23;;;;;;;;;;5021774;28;20825;-69
2021/04/05 07:28:52;;;;;;;11.43;1.73;;;;;;;;;;4994782;28;20201;-69
2021/04/05 07:31:23;;;;;;;16.33;2.37;;;;;;;;;;5023848;28;20190;-69
2021/04/05 07:33:52;;;;;;;9.33;0.93;;;;;;;;;;5016589;28;20190;-69
2021/04/05 07:36:34;;;;;;;6.40;1.10;;;;;;;;;;5026321;28;20516;-69
2021/04/05 07:39:26;;;;;;;9.27;1.20;;;;;;;;;;5017964;28;20193;-69
2021/04/05 07:41:57;;;;;;;13.43;1.60;;;;;;;;;;5025916;28;20186;-69
2021/04/05 07:44:36;;;;;;;5.43;1.37;;;;;;;;;;5015240;28;20220;-69
2021/04/05 07:47:29;;;;;;;13.43;2.90;;;;;;;;;;5025714;28;20598;-69
2021/04/05 07:50:26;;;;;;;12.23;1.77;;;;;;;;;;5013943;28;20244;-70
2021/04/05 07:53:06;;;;;;;17.60;2.20;;;;;;;;;;5023042;28;20189;-70
2021/04/05 07:55:32;;;;;;;12.47;1.87;;;;;;;;;;5024816;28;20197;-70
2021/04/05 07:58:12;;;;;;;14.77;2.03;;;;;;;;;;5026117;28;20280;-69
2021/04/05 08:01:05;;;;;;;13.80;1.87;;;;;;;;;;5015048;28;20412;-70
2021/04/05 08:03:50;;;;;;;15.77;1.73;;;;;;;;;;5024374;28;20296;-70
2021/04/05 08:06:17;;;;;;;12.40;1.87;;;;;;;;;;5021916;28;20486;-69
2021/04/05 08:08:53;;;;;;;11.70;2.17;;;;;;;;;;5023966;28;20248;-69
2021/04/05 08:11:52;;;;;;;18.50;2.70;;;;;;;;;;5019857;28;20759;-70
2021/04/05 08:14:51;;;;;;;13.10;1.70;;;;;;;;;;5015215;28;20304;-70
2021/04/05 08:17:54;;;;;;;15.00;2.27;;;;;;;;;;5023793;28;20190;-70
2021/04/05 08:20:37;;;;;;;11.93;1.83;;;;;;;;;;5012911;28;20197;-70
2021/04/05 08:23:10;;;;;;;19.70;2.97;;;;;;;;;;5023789;28;20331;-71
2021/04/05 08:25:45;;;;;;;11.43;2.40;;;;;;;;;;5014009;28;20190;-71
2021/04/05 08:28:18;;;;;;;15.43;2.60;;;;;;;;;;5022678;28;20189;-71
2021/04/05 08:30:54;;;;;;;13.37;1.97;;;;;;;;;;5015828;28;20272;-71
2021/04/05 08:33:49;;;;;;;11.83;1.50;;;;;;;;;;5024478;28;20185;-71
2021/04/05 08:36:44;;;;;;;7.83;1.20;;;;;;;;;;5016111;28;20605;-70
2021/04/05 08:39:17;;;;;;;10.20;1.63;;;;;;;;;;5023533;28;20197;-70
2021/04/05 08:41:57;;;;;;;11.63;1.53;;;;;;;;;;5015406;28;20213;-70
2021/04/05 08:44:41;;;;;;;6.60;1.13;;;;;;;;;;5023795;28;20205;-70
2021/04/05 08:47:12;;;;;;;14.53;1.50;;;;;;;;;;5008055;28;20190;-70
2021/04/05 08:49:40;;;;;;;8.17;1.33;;;;;;;;;;5021762;28;20232;-70
2021/04/05 08:52:09;;;;;;;9.13;1.07;;;;;;;;;;5015762;28;20273;-70
2021/04/05 08:54:38;;;;;;;7.77;1.00;;;;;;;;;;5023502;28;20186;-70
2021/04/05 08:57:16;;;;;;;8.70;1.07;;;;;;;;;;5013399;28;20189;-70
2021/04/05 09:00:00;;;;;;;8.07;1.07;;;;;;;;;;5021466;28;20227;-70
2021/04/05 09:02:38;;;;;;;5.33;0.70;;;;;;;;;;5012533;28;20660;-69
2021/04/05 09:05:09;;;;;;;0.87;0.10;;;;;;;;;;5025111;28;20257;-68
2021/04/05 09:08:06;;;;;;;1.40;0.10;;;;;;;;;;4811467;28;10000442;-69
2021/04/05 09:11:04;;;;;;;1.67;0.27;;;;;;;;;;5021997;28;20406;-69
2021/04/05 09:13:50;;;;;;;1.60;0.43;;;;;;;;;;5014359;28;20212;-70
2021/04/05 09:16:21;;;;;;;1.13;0.37;;;;;;;;;;5023331;28;20649;-68
2021/04/05 09:19:19;;;;;;;5.60;0.50;;;;;;;;;;5018609;28;20221;-69
2021/04/05 09:22:15;;;;;;;5.13;0.67;;;;;;;;;;5021913;28;20204;-68
2021/04/05 09:25:02;;;;;;;3.63;0.40;;;;;;;;;;5013563;28;20216;-68
2021/04/05 09:27:43;;;;;;;2.80;0.50;;;;;;;;;;5022383;28;20384;-67
2021/04/05 09:30:43;;;;;;;2.80;0.40;;;;;;;;;;5012549;28;21805;-67
2021/04/05 09:33:26;;;;;;;5.27;0.90;;;;;;;;;;5017981;28;20276;-68
2021/04/05 09:35:51;;;;;;;3.87;0.53;;;;;;;;;;5012516;28;20258;-69
2021/04/05 09:38:19;;;;;;;3.37;0.80;;;;;;;;;;5020015;28;20193;-68
2021/04/05 09:41:17;;;;;;;6.13;0.87;;;;;;;;;;5015183;28;20288;-70
2021/04/05 09:44:27;;;;;;;9.83;1.13;;;;;;;;;;5019423;28;20202;-68
2021/04/05 09:47:23;;;;;;;8.10;1.20;;;;;;;;;;5026444;28;23680;-68
2021/04/05 09:50:05;;;;;;;8.53;1.10;;;;;;;;;;5016894;28;20253;-68
2021/04/05 09:52:49;;;;;;;12.23;1.40;;;;;;;;;;5025325;28;20663;-68
2021/04/05 09:55:19;;;;;;;8.77;1.20;;;;;;;;;;5015539;28;20606;-69
2021/04/05 09:58:01;;;;;;;11.13;1.83;;;;;;;;;;5022552;28;20225;-68
2021/04/05 10:00:28;;;;;;;7.97;1.30;;;;;;;;;;5017466;28;20223;-68
2021/04/05 10:02:58;;;;;;;10.43;1.20;;;;;;;;;;5021004;28;20294;-68
2021/04/05 10:05:25;;;;;;;11.47;1.73;;;;;;;;;;5017710;28;20190;-68
2021/04/05 10:07:54;;;;;;;6.87;1.23;;;;;;;;;;5025028;28;20201;-68
2021/04/05 10:10:23;;;;;;;9.60;1.43;;;;;;;;;;5025938;28;21323;-68
2021/04/05 10:12:50;;;;;;;8.03;1.40;;;;;;;;;;5013364;28;20289;-68
2021/04/05 10:15:19;;;;;;;12.20;1.80;;;;;;;;;;5025469;28;20255;-68
2021/04/05 10:17:51;;;;;;;14.37;1.70;;;;;;;;;;5018150;28;20603;-68
2021/04/05 10:20:17;;;;;;;14.67;1.67;;;;;;;;;;5026945;28;20289;-67
2021/04/05 10:22:47;;;;;;;14.33;1.80;;;;;;;;;;5014986;28;20197;-68
2021/04/05 10:25:18;;;;;;;10.43;1.67;;;;;;;;;;5026950;28;20326;-68
2021/04/05 10:27:45;;;;;;;12.90;2.23;;;;;;;;;;5016003;28;20194;-68
2021/04/05 10:30:15;;;;;;;12.03;1.90;;;;;;;;;;5024517;28;20190;-68
2021/04/05 10:32:42;;;;;;;11.13;1.70;;;;;;;;;;5012502;28;20202;-69
2021/04/05 10:35:11;;;;;;;16.43;2.00;;;;;;;;;;5023497;28;20186;-68
2021/04/05 10:37:45;;;;;;;11.27;1.90;;;;;;;;;;5015913;28;20202;-68
2021/04/05 10:40:18;;;;;;;8.30;1.57;;;;;;;;;;5022679;28;20209;-69
2021/04/05 10:42:48;;;;;;;9.67;1.17;;;;;;;;;;5014818;28;20198;-66
2021/04/05 10:45:26;;;;;;;11.13;1.07;;;;;;;;;;5022001;28;20217;-67
2021/04/05 10:48:20;;;;;;;2.77;0.70;;;;;;;;;;5015245;28;20252;-67
2021/04/05 10:50:54;;;;;;;2.87;0.50;;;;;;;;;;5021279;28;20361;-67
2021/04/05 10:53:21;;;;;;;9.23;1.10;;;;;;;;;;5017785;28;20591;-68
2021/04/05 10:55:52;;;;;;;8.53;0.73;;;;;;;;;;5023237;28;20209;-67
2021/04/05 10:58:22;;;;;;;9.30;0.97;;;;;;;;;;4998191;28;20193;-68
2021/04/05 11:00:52;;;;;;;10.80;1.40;;;;;;;;;;5015128;28;20210;-68
2021/04/05 11:03:26;;;;;;;7.50;0.80;;;;;;;;;;5020235;28;20830;-68
2021/04/05 11:05:55;;;;;;;4.37;0.90;;;;;;;;;;5019165;28;20606;-68
2021/04/05 11:08:23;;;;;;;8.00;0.87;;;;;;;;;;5018010;28;20208;-68
2021/04/05 11:10:50;;;;;;;6.17;0.73;;;;;;;;;;5010705;28;20217;-68
2021/04/05 11:13:21;;;;;;;10.17;1.17;;;;;;;;;;5018114;28;20507;-67
2021/04/05 11:15:47;;;;;;;7.07;0.77;;;;;;;;;;5011097;28;20521;-67
2021/04/05 11:18:16;;;;;;;2.00;0.50;;;;;;;;;;5019297;28;20710;-66
2021/04/05 11:20:43;;;;;;;4.43;0.67;;;;;;;;;;5013130;28;20205;-68
2021/04/05 11:23:12;;;;;;;4.30;0.93;;;;;;;;;;5019664;28;20190;-68
2021/04/05 11:25:41;;;;;;;5.00;0.50;;;;;;;;;;5011002;28;20775;-68
2021/04/05 11:28:12;;;;;;;3.00;0.40;;;;;;;;;;5018914;28;20197;-68
2021/04/05 11:30:39;;;;;;;6.70;0.67;;;;;;;;;;5011406;28;20189;-68
2021/04/05 11:33:07;;;;;;;5.10;0.50;;;;;;;;;;5017151;28;20593;-68
2021/04/05 11:35:34;;;;;;;4.33;0.70;;;;;;;;;;5004639;28;20231;-69
2021/04/05 11:38:02;;;;;;;4.60;0.50;;;;;;;;;;5017412;28;20283;-68
2021/04/05 11:40:30;;;;;;;2.83;0.57;;;;;;;;;;5009794;28;20472;-68
2021/04/05 11:42:57;;;;;;;2.50;0.77;;;;;;;;;;5018108;28;20529;-68
2021/04/05 11:45:40;;;;;;;7.20;0.60;;;;;;;;;;5023649;28;20199;-68
2021/04/05 11:48:16;;;;;;;1.47;0.30;;;;;;;;;;5011947;28;20202;-68
2021/04/05 11:50:43;;;;;;;8.10;0.70;;;;;;;;;;5021234;28;20329;-70
2021/04/05 11:53:19;;;;;;;14.93;0.83;;;;;;;;;;5015506;28;20526;-69
2021/04/05 11:55:46;;;;;;;4.07;0.30;;;;;;;;;;5019937;28;20190;-68
2021/04/05 11:58:26;;;;;;;3.40;0.40;;;;;;;;;;5012671;28;20201;-68
2021/04/05 12:00:57;;;;;;;4.63;0.30;;;;;;;;;;5023437;28;20610;-68
2021/04/05 12:03:43;;;;;;;3.20;0.33;;;;;;;;;;5012765;28;20214;-68
2021/04/05 12:06:20;;;;;;;5.70;0.30;;;;;;;;;;5018651;28;20617;-69
2021/04/05 12:08:52;;;;;;;0.47;0.10;;;;;;;;;;5011795;28;20232;-68
2021/04/05 12:11:20;;;;;;;1.57;0.23;;;;;;;;;;5019554;28;20313;-68
2021/04/05 12:13:55;;;;;;;0.30;0.20;;;;;;;;;;5010311;28;20770;-68
2021/04/05 12:16:25;;;;;;;2.77;0.40;;;;;;;;;;5018237;28;20748;-68
2021/04/05 12:18:53;;;;;;;2.87;0.30;;;;;;;;;;5012330;28;20205;-68
2021/04/05 12:21:19;;;;;;;3.17;0.30;;;;;;;;;;5017575;28;20197;-68
2021/04/05 12:23:55;;;;;;;5.53;0.63;;;;;;;;;;5011134;28;20242;-67
2021/04/05 12:26:23;;;;;;;4.03;0.40;;;;;;;;;;5019034;28;20193;-67
2021/04/05 12:28:49;;;;;;;3.30;0.47;;;;;;;;;;5012117;28;20194;-68
2021/04/05 12:31:15;;;;;;;1.77;0.50;;;;;;;;;;5018867;28;20535;-69
2021/04/05 12:33:41;;;;;;;5.10;0.43;;;;;;;;;;5013185;28;20280;-68
2021/04/05 12:36:07;;;;;;;2.23;0.23;;;;;;;;;;5017486;28;21890;-69
2021/04/05 12:38:38;;;;;;;3.50;0.83;;;;;;;;;;4669078;28;10000776;-69
2021/04/05 12:41:06;;;;;;;4.07;0.40;;;;;;;;;;5014741;28;20743;-67
2021/04/05 12:43:35;;;;;;;2.50;0.40;;;;;;;;;;5015183;28;20521;-67
2021/04/05 12:46:02;;;;;;;3.50;0.23;;;;;;;;;;5003870;28;20189;-68
2021/04/05 12:48:30;;;;;;;5.17;0.40;;;;;;;;;;5015795;28;20851;-68
2021/04/05 12:51:02;;;;;;;3.23;0.57;;;;;;;;;;5007117;28;20363;-68
2021/04/05 12:53:29;;;;;;;4.00;0.30;;;;;;;;;;5013407;28;20177;-69
2021/04/05 12:55:56;;;;;;;2.50;0.40;;;;;;;;;;5006505;28;20216;-69
2021/04/05 12:58:26;;;;;;;1.93;0.23;;;;;;;;;;5015897;28;20189;-68
2021/04/05 13:00:52;;;;;;;3.77;0.40;;;;;;;;;;5008358;28;20665;-69
2021/04/05 13:03:27;;;;;;;1.53;0.40;;;;;;;;;;5015898;28;20209;-69
2021/04/05 13:05:59;;;;;;;6.30;0.50;;;;;;;;;;5010735;28;20797;-69
2021/04/05 13:08:52;;;;;;;1.50;0.30;;;;;;;;;;5018271;28;20327;-68
2021/04/05 13:11:25;;;;;;;4.00;0.90;;;;;;;;;;5005799;28;20190;-69
2021/04/05 13:14:00;;;;;;;2.90;0.50;;;;;;;;;;5016953;28;20178;-68
2021/04/05 13:16:37;;;;;;;3.27;0.80;;;;;;;;;;5006850;28;20482;-68
2021/04/05 13:19:10;;;;;;;5.23;0.80;;;;;;;;;;5019592;28;20191;-69
2021/04/05 13:21:38;;;;;;;4.63;0.50;;;;;;;;;;5008483;28;20280;-68
2021/04/05 13:24:12;;;;;;;3.93;0.33;;;;;;;;;;5019120;28;20345;-67
2021/04/05 13:26:50;;;;;;;2.23;0.63;;;;;;;;;;5009659;28;20854;-68
2021/04/05 13:29:22;;;;;;;6.33;0.80;;;;;;;;;;5017876;28;20181;-67
2021/04/05 13:31:52;;;;;;;5.03;0.53;;;;;;;;;;5007441;28;20520;-67
2021/04/05 13:34:23;;;;;;;6.40;0.60;;;;;;;;;;5018726;28;20174;-67
2021/04/05 13:36:52;;;;;;;2.67;0.67;;;;;;;;;;5007523;28;20677;-68
2021/04/05 13:39:23;;;;;;;3.27;0.50;;;;;;;;;;5015736;28;20243;-68
2021/04/05 13:41:51;;;;;;;7.27;0.90;;;;;;;;;;5016971;28;20533;-67
2021/04/05 13:44:24;;;;;;;5.03;0.50;;;;;;;;;;5010026;28;20254;-67
2021/04/05 13:46:50;;;;;;;4.20;0.60;;;;;;;;;;5018593;28;20196;-68
2021/04/05 13:49:24;;;;;;;2.53;0.53;;;;;;;;;;5009135;28;20185;-67
2021/04/05 13:51:51;;;;;;;7.07;0.70;;;;;;;;;;5015963;28;20193;-67
2021/04/05 13:54:22;;;;;;;8.07;0.83;;;;;;;;;;5010932;28;20551;-66
2021/04/05 13:56:54;;;;;;;5.80;0.53;;;;;;;;;;5018649;28;20217;-67
2021/04/05 13:59:21;;;;;;;3.10;0.40;;;;;;;;;;5006069;28;20489;-67
2021/04/05 14:01:47;;;;;;;4.23;0.47;;;;;;;;;;5018574;28;20186;-67
2021/04/05 14:04:13;;;;;;;6.10;0.50;;;;;;;;;;5010964;28;20334;-67
2021/04/05 14:06:48;;;;;;;4.77;0.50;;;;;;;;;;5020460;28;20276;-66
2021/04/05 14:09:18;;;;;;;7.83;0.70;;;;;;;;;;5012104;28;20204;-67
2021/04/05 14:11:49;;;;;;;5.53;0.70;;;;;;;;;;5020657;28;20194;-67
2021/04/05 14:14:15;;;;;;;5.93;0.70;;;;;;;;;;5010683;28;20273;-67
2021/04/05 14:16:49;;;;;;;8.27;0.90;;;;;;;;;;5022878;28;20198;-67
2021/04/05 14:19:32;;;;;;;6.40;1.03;;;;;;;;;;5012351;28;23165;-67
2021/04/05 14:22:21;;;;;;;5.93;0.83;;;;;;;;;;5021103;28;20637;-68
2021/04/05 14:24:51;;;;;;;5.20;0.47;;;;;;;;;;5009478;28;20272;-68
2021/04/05 14:27:28;;;;;;;5.23;1.00;;;;;;;;;;5022687;28;20189;-68
2021/04/05 14:29:57;;;;;;;5.47;1.00;;;;;;;;;;5016116;28;20294;-68
2021/04/05 14:32:26;;;;;;;10.97;3.60;;;;;;;;;;5025466;28;20929;-69
2021/04/05 14:34:54;;;;;;;7.87;2.00;;;;;;;;;;5017744;28;20194;-67
2021/04/05 14:37:52;;;;;;;8.07;1.70;;;;;;;;;;5025262;28;20720;-68
2021/04/05 14:40:20;;;;;;;9.43;1.10;;;;;;;;;;5010073;28;20712;-69
2021/04/05 14:42:59;;;;;;;6.13;1.33;;;;;;;;;;5025728;28;20193;-69
2021/04/05 14:45:25;;;;;;;8.70;1.53;;;;;;;;;;5018548;28;20625;-72
2021/04/05 14:47:56;;;;;;;7.13;0.97;;;;;;;;;;5026986;28;20226;-72
2021/04/05 14:50:30;;;;;;;5.77;1.10;;;;;;;;;;5027762;28;20352;-72
2021/04/05 14:53:08;;;;;;;8.70;1.17;;;;;;;;;;5022789;28;20535;-70
2021/04/05 14:55:36;;;;;;;6.93;1.03;;;;;;;;;;5026049;28;20214;-70
2021/04/05 14:58:04;;;;;;;8.73;0.80;;;;;;;;;;5018997;28;20198;-71
2021/04/05 15:00:33;;;;;;;8.83;1.10;;;;;;;;;;5028254;28;20197;-70
2021/04/05 15:03:12;;;;;;;4.80;0.70;;;;;;;;;;5017162;28;20213;-69
2021/04/05 15:06:06;;;;;;;3.13;0.93;;;;;;;;;;5026215;28;20593;-69